TimeEDT,TemperatureF,Dew PointF,Humidity,Sea Level PressureIn,VisibilityMPH,Wind Direction,Wind SpeedMPH,Gust SpeedMPH,PrecipitationIn,Events,Conditions,WindDirDegrees,DateUTC
12:16 AM,68.0,55.4,64,30.03,10.0,North,6.9,-,N/A,,Overcast,10,2013-10-08 04:16:00
12:36 AM,68.0,55.4,64,30.04,10.0,North,9.2,-,N/A,,Overcast,10,2013-10-08 04:36:00
12:56 AM,68.0,55.4,64,30.05,10.0,North,8.1,-,N/A,,Overcast,10,2013-10-08 04:56:00
1:15 AM,68.0,55.4,64,30.06,10.0,North,6.9,-,N/A,,Overcast,10,2013-10-08 05:15:00
1:35 AM,66.2,51.8,60,30.06,10.0,North,8.1,-,N/A,,Overcast,10,2013-10-08 05:35:00
1:55 AM,66.2,48.2,52,30.06,10.0,North,11.5,19.6,N/A,,Overcast,10,2013-10-08 05:55:00
2:15 AM,66.2,46.4,49,30.06,10.0,North,10.4,25.3,N/A,,Overcast,10,2013-10-08 06:15:00
2:36 AM,66.2,44.6,46,30.06,10.0,North,15.0,21.9,N/A,,Overcast,10,2013-10-08 06:36:00
2:55 AM,66.2,44.6,46,30.08,10.0,NNE,9.2,-,N/A,,Overcast,20,2013-10-08 06:55:00
3:15 AM,66.2,46.4,49,30.08,10.0,North,11.5,19.6,N/A,,Overcast,10,2013-10-08 07:15:00
3:35 AM,66.2,44.6,46,30.08,10.0,North,10.4,-,N/A,,Overcast,10,2013-10-08 07:35:00
3:56 AM,66.2,46.4,49,30.09,10.0,NNE,8.1,17.3,N/A,,Overcast,20,2013-10-08 07:56:00
4:15 AM,66.2,46.4,49,30.10,10.0,North,9.2,17.3,N/A,,Overcast,10,2013-10-08 08:15:00
4:36 AM,64.4,46.4,52,30.10,10.0,NNE,10.4,-,N/A,,Overcast,20,2013-10-08 08:36:00
4:56 AM,64.4,46.4,52,30.11,10.0,NNE,9.2,-,N/A,,Overcast,20,2013-10-08 08:56:00
5:16 AM,64.4,46.4,52,30.11,10.0,North,10.4,19.6,N/A,,Overcast,10,2013-10-08 09:16:00
5:36 AM,64.4,44.6,49,30.13,10.0,North,11.5,18.4,N/A,,Overcast,10,2013-10-08 09:36:00
5:56 AM,64.4,42.8,45,30.13,10.0,NNE,13.8,20.7,N/A,,Overcast,20,2013-10-08 09:56:00
6:16 AM,64.4,42.8,45,30.13,10.0,North,13.8,18.4,N/A,,Overcast,10,2013-10-08 10:16:00
6:36 AM,64.4,42.8,45,30.14,10.0,North,11.5,21.9,N/A,,Overcast,10,2013-10-08 10:36:00
6:58 AM,64.4,44.6,49,30.14,10.0,North,12.7,19.6,N/A,,Overcast,10,2013-10-08 10:58:00
7:15 AM,64.4,44.6,49,30.15,10.0,NNE,13.8,21.9,N/A,,Overcast,20,2013-10-08 11:15:00
7:35 AM,62.6,44.6,52,30.16,10.0,North,11.5,20.7,N/A,,Overcast,10,2013-10-08 11:35:00
7:56 AM,62.6,44.6,52,30.17,10.0,North,10.4,18.4,N/A,,Overcast,10,2013-10-08 11:56:00
8:17 AM,62.6,44.6,52,30.18,10.0,NNE,6.9,17.3,N/A,,Overcast,20,2013-10-08 12:17:00
8:35 AM,62.6,44.6,52,30.19,10.0,North,11.5,17.3,N/A,,Overcast,360,2013-10-08 12:35:00
8:55 AM,62.6,44.6,52,30.20,10.0,North,13.8,18.4,N/A,,Overcast,10,2013-10-08 12:55:00
9:15 AM,62.6,46.4,55,30.20,10.0,NNE,9.2,-,N/A,,Overcast,20,2013-10-08 13:15:00
9:35 AM,62.6,46.4,55,30.21,10.0,NNE,12.7,-,N/A,,Mostly Cloudy,20,2013-10-08 13:35:00
10:16 AM,62.6,44.6,52,30.21,10.0,NNE,10.4,17.3,N/A,,Mostly Cloudy,30,2013-10-08 14:16:00
10:35 AM,64.4,44.6,49,30.21,10.0,NNE,6.9,16.1,N/A,,Overcast,30,2013-10-08 14:35:00
10:56 AM,64.4,44.6,49,30.20,10.0,NE,10.4,16.1,N/A,,Overcast,40,2013-10-08 14:56:00
11:17 AM,64.4,44.6,49,30.20,10.0,NE,9.2,17.3,N/A,,Mostly Cloudy,40,2013-10-08 15:17:00
11:36 AM,64.4,44.6,49,30.20,10.0,NNE,10.4,16.1,N/A,,Scattered Clouds,20,2013-10-08 15:36:00
11:55 AM,66.2,42.8,43,30.20,10.0,NE,9.2,-,N/A,,Scattered Clouds,40,2013-10-08 15:55:00
12:15 PM,66.2,42.8,43,30.21,10.0,NNE,10.4,16.1,N/A,,Clear,30,2013-10-08 16:15:00
12:35 PM,66.2,44.6,46,30.21,10.0,NE,10.4,16.1,N/A,,Clear,50,2013-10-08 16:35:00
12:55 PM,66.2,44.6,46,30.21,10.0,NE,9.2,12.7,N/A,,Mostly Cloudy,50,2013-10-08 16:55:00
1:15 PM,66.2,44.6,46,30.20,10.0,NNE,8.1,-,N/A,,Scattered Clouds,30,2013-10-08 17:15:00
1:36 PM,66.2,46.4,49,30.19,10.0,NE,5.8,-,N/A,,Scattered Clouds,40,2013-10-08 17:36:00
1:55 PM,66.2,46.4,49,30.18,10.0,NNE,9.2,-,N/A,,Clear,30,2013-10-08 17:55:00
2:15 PM,66.2,46.4,49,30.18,10.0,NNE,9.2,-,N/A,,Clear,30,2013-10-08 18:15:00
2:35 PM,66.2,46.4,49,30.20,10.0,NE,12.7,19.6,N/A,,Clear,50,2013-10-08 18:35:00
2:55 PM,66.2,46.4,49,30.20,10.0,NE,9.2,17.3,N/A,,Clear,50,2013-10-08 18:55:00
3:15 PM,66.2,48.2,52,30.19,10.0,NE,10.4,18.4,N/A,,Clear,40,2013-10-08 19:15:00
3:36 PM,66.2,48.2,52,30.19,10.0,NNE,9.2,-,N/A,,Clear,20,2013-10-08 19:36:00
3:55 PM,66.2,48.2,52,30.20,10.0,NNE,6.9,-,N/A,,Clear,20,2013-10-08 19:55:00
4:35 PM,66.2,50.0,56,30.20,10.0,North,6.9,-,N/A,,Clear,10,2013-10-08 20:35:00
4:55 PM,66.2,51.8,60,30.20,10.0,NNE,6.9,-,N/A,,Clear,20,2013-10-08 20:55:00
5:15 PM,66.2,51.8,60,30.21,10.0,North,5.8,-,N/A,,Clear,10,2013-10-08 21:15:00
5:35 PM,66.2,51.8,60,30.20,10.0,NNE,5.8,-,N/A,,Scattered Clouds,20,2013-10-08 21:35:00
5:55 PM,64.4,53.6,68,30.21,10.0,NNE,6.9,-,N/A,,Mostly Cloudy,20,2013-10-08 21:55:00
6:15 PM,64.4,53.6,68,30.21,10.0,NNE,6.9,-,N/A,,Mostly Cloudy,20,2013-10-08 22:15:00
6:35 PM,64.4,53.6,68,30.21,10.0,NNE,5.8,-,N/A,,Scattered Clouds,30,2013-10-08 22:35:00
6:55 PM,64.4,53.6,68,30.22,10.0,NNE,6.9,-,N/A,,Scattered Clouds,20,2013-10-08 22:55:00
7:15 PM,64.4,53.6,68,30.22,10.0,NNE,8.1,-,N/A,,Scattered Clouds,30,2013-10-08 23:15:00
7:35 PM,64.4,53.6,68,30.22,10.0,NNE,9.2,-,N/A,,Mostly Cloudy,20,2013-10-08 23:35:00
7:58 PM,64.4,53.6,68,30.21,10.0,NNE,9.2,-,N/A,,Scattered Clouds,20,2013-10-08 23:58:00
8:16 PM,64.4,51.8,64,30.21,10.0,NNE,9.2,-,N/A,,Clear,20,2013-10-09 00:16:00
8:35 PM,64.4,51.8,64,30.22,10.0,NNE,9.2,16.1,N/A,,Mostly Cloudy,20,2013-10-09 00:35:00
8:56 PM,64.4,51.8,64,30.23,10.0,NNE,5.8,-,N/A,,Overcast,20,2013-10-09 00:56:00
9:15 PM,64.4,51.8,64,30.22,10.0,NNE,10.4,-,N/A,,Overcast,20,2013-10-09 01:15:00
9:35 PM,64.4,50.0,59,30.23,10.0,NNE,8.1,-,N/A,,Overcast,20,2013-10-09 01:35:00
9:55 PM,64.4,50.0,59,30.23,10.0,NNE,8.1,-,N/A,,Scattered Clouds,30,2013-10-09 01:55:00
10:16 PM,64.4,50.0,59,30.23,10.0,NNE,9.2,-,N/A,,Scattered Clouds,20,2013-10-09 02:16:00
10:35 PM,64.4,50.0,59,30.23,10.0,NNE,6.9,-,N/A,,Clear,20,2013-10-09 02:35:00
10:56 PM,64.4,48.2,56,30.23,10.0,NNE,8.1,-,N/A,,Clear,20,2013-10-09 02:56:00
11:16 PM,64.4,48.2,56,30.22,10.0,NNE,9.2,-,N/A,,Scattered Clouds,20,2013-10-09 03:16:00
11:35 PM,64.4,48.2,56,30.21,10.0,NNE,10.4,-,N/A,,Mostly Cloudy,20,2013-10-09 03:35:00
11:55 PM,64.4,48.2,56,30.20,10.0,NNE,10.4,-,N/A,,Mostly Cloudy,20,2013-10-09 03:55:00